createdAt,value
2019-03-21T00:02:02.299Z,1.90
2019-03-21T00:04:32.796Z,1.90
2019-03-21T00:07:03.247Z,1.80
2019-03-21T00:09:33.752Z,1.80
2019-03-21T00:12:11.454Z,1.80
2019-03-21T00:14:58.445Z,1.70
2019-03-21T00:17:39.275Z,1.70
2019-03-21T00:20:13.813Z,1.60
2019-03-21T00:22:44.303Z,1.50
2019-03-21T00:25:23.326Z,1.50
2019-03-21T00:27:53.822Z,1.60
2019-03-21T00:30:26.718Z,1.60
2019-03-21T00:32:58.009Z,1.70
2019-03-21T00:35:28.507Z,1.60
2019-03-21T00:37:58.971Z,1.50
2019-03-21T00:40:36.679Z,1.40
2019-03-21T00:43:11.139Z,1.40
2019-03-21T00:45:41.609Z,1.30
2019-03-21T00:48:16.271Z,1.30
2019-03-21T00:50:46.737Z,1.20
2019-03-21T00:53:17.297Z,1.30
2019-03-21T00:55:51.938Z,1.30
2019-03-21T00:58:22.435Z,1.40
2019-03-21T01:01:02.660Z,1.30
2019-03-21T01:03:33.146Z,1.30
2019-03-21T01:06:03.596Z,1.30
2019-03-21T01:08:34.104Z,1.20
2019-03-21T01:11:04.586Z,1.20
2019-03-21T01:13:38.751Z,1.10
2019-03-21T01:16:09.369Z,1.20
2019-03-21T01:18:46.367Z,1.10
2019-03-21T01:21:16.849Z,1.20
2019-03-21T01:23:47.305Z,1.20
2019-03-21T01:26:17.801Z,1.10
2019-03-21T01:28:48.253Z,1.10
2019-03-21T01:31:18.739Z,1.10
2019-03-21T01:33:49.191Z,1.10
2019-03-21T01:36:22.706Z,1.00
2019-03-21T01:38:53.159Z,1.00
2019-03-21T01:41:23.678Z,0.90
2019-03-21T01:43:54.131Z,0.90
2019-03-21T01:46:28.578Z,0.90
2019-03-21T01:48:59.038Z,0.80
2019-03-21T01:51:29.603Z,0.70
2019-03-21T01:54:00.066Z,0.70
2019-03-21T01:56:31.759Z,0.70
2019-03-21T01:59:02.242Z,0.60
2019-03-21T02:01:32.867Z,0.60
2019-03-21T02:04:03.351Z,0.50
2019-03-21T02:06:33.818Z,0.50
2019-03-21T02:09:08.338Z,0.50
2019-03-21T02:11:39.026Z,0.40
2019-03-21T02:14:09.520Z,0.40
2019-03-21T02:16:40.005Z,0.40
2019-03-21T02:19:10.498Z,0.40
2019-03-21T02:21:41.004Z,0.40
2019-03-21T02:24:11.477Z,0.40
2019-03-21T02:26:41.968Z,0.40
2019-03-21T02:29:12.441Z,0.50
2019-03-21T02:31:42.923Z,0.50
2019-03-21T02:34:13.374Z,0.50
2019-03-21T02:36:44.097Z,0.50
2019-03-21T02:39:14.626Z,0.50
2019-03-21T02:41:45.108Z,0.40
2019-03-21T02:44:15.571Z,0.40
2019-03-21T02:46:46.057Z,0.30
2019-03-21T02:49:16.524Z,0.30
2019-03-21T02:51:47.015Z,0.20
2019-03-21T02:54:17.497Z,0.20
2019-03-21T02:56:48.133Z,0.20
2019-03-21T02:59:18.641Z,0.20
2019-03-21T03:01:49.092Z,0.10
2019-03-21T03:04:19.578Z,0.20
2019-03-21T03:06:50.791Z,0.20
2019-03-21T03:09:21.273Z,0.30
2019-03-21T03:11:51.736Z,0.30
2019-03-21T03:14:22.228Z,0.30
2019-03-21T03:16:52.686Z,0.30
2019-03-21T03:19:23.170Z,0.30
2019-03-21T03:21:53.652Z,0.20
2019-03-21T03:24:25.208Z,0.20
2019-03-21T03:26:55.707Z,0.20
2019-03-21T03:29:26.163Z,0.20
2019-03-21T03:31:56.661Z,0.10
2019-03-21T03:34:27.125Z,0.10
2019-03-21T03:36:57.602Z,0.10
2019-03-21T03:39:28.166Z,0.00
2019-03-21T03:41:58.821Z,0.00
2019-03-21T03:44:29.277Z,0.00
2019-03-21T03:46:59.757Z,0.00
2019-03-21T03:49:30.212Z,0.00
2019-03-21T03:52:00.701Z,0.00
2019-03-21T03:54:31.234Z,-0.10
2019-03-21T03:57:01.725Z,0.00
2019-03-21T03:59:32.182Z,-0.10
2019-03-21T04:02:02.814Z,-0.10
2019-03-21T04:04:33.294Z,-0.10
2019-03-21T04:07:03.793Z,-0.10
2019-03-21T04:09:34.335Z,-0.10
2019-03-21T04:12:04.979Z,-0.20
2019-03-21T04:14:35.450Z,-0.20
2019-03-21T04:17:05.937Z,-0.30
2019-03-21T04:19:36.400Z,-0.30
2019-03-21T04:22:06.895Z,-0.30
2019-03-21T04:24:37.356Z,-0.30
2019-03-21T04:27:07.988Z,-0.30
2019-03-21T04:29:38.474Z,-0.40
2019-03-21T04:32:08.950Z,-0.40
2019-03-21T04:34:39.450Z,-0.40
2019-03-21T04:37:09.912Z,-0.40
2019-03-21T04:39:40.489Z,-0.40
2019-03-21T04:42:10.954Z,-0.40
2019-03-21T04:44:41.433Z,-0.50
2019-03-21T04:47:11.895Z,-0.50
2019-03-21T04:49:42.391Z,-0.50
2019-03-21T04:52:12.879Z,-0.50
2019-03-21T04:54:43.339Z,-0.50
2019-03-21T04:57:13.833Z,-0.50
2019-03-21T04:59:44.299Z,-0.50
2019-03-21T05:02:14.795Z,-0.60
2019-03-21T05:04:45.266Z,-0.60
2019-03-21T05:07:15.766Z,-0.60
2019-03-21T05:09:46.267Z,-0.60
2019-03-21T05:12:16.758Z,-0.50
2019-03-21T05:14:47.247Z,-0.40
2019-03-21T05:17:17.735Z,-0.40
2019-03-21T05:19:48.202Z,-0.50
2019-03-21T05:22:18.710Z,-0.50
2019-03-21T05:24:49.199Z,-0.50
2019-03-21T05:27:19.669Z,-0.40
2019-03-21T05:29:50.152Z,-0.40
2019-03-21T05:32:20.619Z,-0.40
2019-03-21T05:34:51.113Z,-0.40
2019-03-21T05:37:21.601Z,-0.40
2019-03-21T05:39:52.087Z,-0.40
2019-03-21T05:42:22.651Z,-0.30
2019-03-21T05:44:53.151Z,-0.30
2019-03-21T05:47:23.648Z,-0.20
2019-03-21T05:49:54.107Z,-0.10
2019-03-21T05:52:24.605Z,0.00
2019-03-21T05:54:55.141Z,0.10
2019-03-21T05:57:25.659Z,0.20
2019-03-21T05:59:56.127Z,0.30
2019-03-21T06:02:26.697Z,0.40
2019-03-21T06:04:57.163Z,0.60
2019-03-21T06:07:31.623Z,0.60
2019-03-21T06:10:02.078Z,0.70
2019-03-21T06:12:35.754Z,0.80
2019-03-21T06:15:10.865Z,0.90
2019-03-21T06:17:41.418Z,1.00
2019-03-21T06:20:49.879Z,1.10
2019-03-21T06:23:36.996Z,1.20
2019-03-21T06:26:34.724Z,1.40
2019-03-21T06:29:05.248Z,1.50
2019-03-21T06:31:35.732Z,1.60
2019-03-21T06:34:06.259Z,1.70
2019-03-21T06:36:36.759Z,1.80
2019-03-21T06:39:09.425Z,1.90
2019-03-21T06:41:39.907Z,1.90
2019-03-21T06:44:10.365Z,2.00
2019-03-21T06:46:49.004Z,2.00
2019-03-21T06:49:13.011Z,2.10
2019-03-21T06:51:43.525Z,2.20
2019-03-21T06:54:14.111Z,2.20
2019-03-21T06:56:44.553Z,2.30
2019-03-21T06:59:15.130Z,2.40
2019-03-21T07:01:45.656Z,2.50
2019-03-21T07:04:16.138Z,2.50
2019-03-21T07:06:46.672Z,2.50
2019-03-21T07:09:17.166Z,2.60
2019-03-21T07:11:47.664Z,2.60
2019-03-21T07:14:19.530Z,2.70
2019-03-21T07:17:00.018Z,2.80
2019-03-21T07:19:22.220Z,2.90
2019-03-21T07:21:52.703Z,3.00
2019-03-21T07:24:23.193Z,2.90
2019-03-21T07:26:53.668Z,3.00
2019-03-21T07:29:24.141Z,2.90
2019-03-21T07:31:54.614Z,2.90
2019-03-21T07:34:25.098Z,2.90
2019-03-21T07:36:55.550Z,3.00
2019-03-21T07:39:28.579Z,2.90
2019-03-21T07:42:00.907Z,3.10
2019-03-21T07:44:30.454Z,3.20
2019-03-21T07:47:11.705Z,3.40
2019-03-21T07:49:33.098Z,3.60
2019-03-21T07:52:03.665Z,3.90
2019-03-21T07:54:34.135Z,4.00
2019-03-21T07:57:04.640Z,4.30
2019-03-21T07:59:35.139Z,4.50
2019-03-21T08:02:05.660Z,4.60
2019-03-21T08:04:36.814Z,4.50
2019-03-21T08:07:07.312Z,4.60
2019-03-21T08:09:37.859Z,4.60
2019-03-21T08:12:08.330Z,4.70
2019-03-21T08:14:38.801Z,4.90
2019-03-21T08:17:09.296Z,5.00
2019-03-21T08:19:39.789Z,5.10
2019-03-21T08:22:10.308Z,5.20
2019-03-21T08:24:40.816Z,5.20
2019-03-21T08:27:11.349Z,5.40
2019-03-21T08:29:41.962Z,5.20
2019-03-21T08:32:19.687Z,5.60
2019-03-21T08:34:50.194Z,5.80
2019-03-21T08:37:20.652Z,5.90
2019-03-21T08:39:51.133Z,6.00
2019-03-21T08:42:21.592Z,6.20
2019-03-21T08:44:52.086Z,6.50
2019-03-21T08:47:22.568Z,6.70
2019-03-21T08:49:53.076Z,6.80
2019-03-21T08:52:23.508Z,7.00
2019-03-21T08:54:53.994Z,7.20
2019-03-21T08:57:24.453Z,7.10
2019-03-21T08:59:54.946Z,7.00
2019-03-21T09:02:25.410Z,7.00
2019-03-21T09:04:59.680Z,7.20
2019-03-21T09:07:29.762Z,7.30
2019-03-21T09:10:00.437Z,7.40
2019-03-21T09:12:31.015Z,7.60
2019-03-21T09:15:01.472Z,7.70
2019-03-21T09:17:31.961Z,7.80
2019-03-21T09:20:02.426Z,7.90
2019-03-21T09:22:32.906Z,7.90
2019-03-21T09:25:04.894Z,8.00
2019-03-21T09:27:35.591Z,8.00
2019-03-21T09:30:14.691Z,8.10
2019-03-21T09:32:45.236Z,8.20
2019-03-21T09:35:15.792Z,8.50
2019-03-21T09:37:46.249Z,8.50
2019-03-21T09:40:16.801Z,8.60
2019-03-21T09:42:47.252Z,8.90
2019-03-21T09:45:17.814Z,9.20
2019-03-21T09:47:48.273Z,9.50
2019-03-21T09:50:28.593Z,9.70
2019-03-21T09:52:59.065Z,9.80
2019-03-21T09:55:29.554Z,10.00
2019-03-21T09:58:00.014Z,10.20
2019-03-21T10:00:36.317Z,10.20
2019-03-21T10:03:07.144Z,10.40
2019-03-21T10:05:37.648Z,10.80
2019-03-21T10:08:08.181Z,11.10
2019-03-21T10:10:38.687Z,11.40
2019-03-21T10:13:09.150Z,11.80
2019-03-21T10:15:39.665Z,12.00
2019-03-21T10:18:10.171Z,12.40
2019-03-21T10:20:40.638Z,12.40
2019-03-21T10:23:11.159Z,12.50
2019-03-21T10:25:41.635Z,12.60
2019-03-21T10:28:12.136Z,12.70
2019-03-21T10:30:43.705Z,12.80
2019-03-21T10:33:14.819Z,13.00
2019-03-21T10:35:45.430Z,13.00
2019-03-21T10:38:15.938Z,12.60
2019-03-21T10:40:47.811Z,12.70
2019-03-21T10:43:18.296Z,13.00
2019-03-21T10:45:48.790Z,12.90
2019-03-21T10:48:19.258Z,13.10
2019-03-21T10:50:49.738Z,13.20
2019-03-21T10:53:20.201Z,13.70
2019-03-21T10:55:50.691Z,13.90
2019-03-21T10:58:21.148Z,13.90
2019-03-21T11:00:51.642Z,14.20
2019-03-21T11:03:22.099Z,14.70
2019-03-21T11:05:52.657Z,14.60
2019-03-21T11:08:24.371Z,15.10
2019-03-21T11:10:54.872Z,15.40
2019-03-21T11:13:25.338Z,15.60
2019-03-21T11:15:55.837Z,15.80
2019-03-21T11:18:35.720Z,15.80
2019-03-21T11:20:58.530Z,15.80
2019-03-21T11:23:29.041Z,16.10
2019-03-21T11:25:59.508Z,16.40
2019-03-21T11:28:30.002Z,17.00
2019-03-21T11:31:00.460Z,17.30
2019-03-21T11:33:30.953Z,17.10
2019-03-21T11:36:01.453Z,17.10
2019-03-21T11:38:31.931Z,17.40
2019-03-21T11:41:02.442Z,17.30
2019-03-21T11:43:32.925Z,17.60
2019-03-21T11:46:03.412Z,18.40
2019-03-21T11:48:33.884Z,18.90
2019-03-21T11:51:04.351Z,19.40
2019-03-21T11:53:34.924Z,19.80
2019-03-21T11:56:05.459Z,20.10
2019-03-21T11:58:36.019Z,20.30
2019-03-21T12:01:07.801Z,19.90
2019-03-21T12:03:38.301Z,19.70
2019-03-21T12:06:08.798Z,19.80
2019-03-21T12:08:39.250Z,19.80
2019-03-21T12:11:09.814Z,19.80
2019-03-21T12:13:40.371Z,19.20
2019-03-21T12:16:10.835Z,18.70
2019-03-21T12:18:41.329Z,18.10
2019-03-21T12:21:11.782Z,18.10
2019-03-21T12:23:42.298Z,17.90
2019-03-21T12:26:12.770Z,18.10
2019-03-21T12:28:45.558Z,18.40
2019-03-21T12:31:16.098Z,18.20
2019-03-21T12:33:46.614Z,18.30
2019-03-21T12:36:17.104Z,18.60
2019-03-21T12:38:47.626Z,19.00
2019-03-21T12:41:18.086Z,18.80
2019-03-21T12:43:49.136Z,19.00
2019-03-21T12:46:19.598Z,19.00
2019-03-21T12:48:50.094Z,18.70
2019-03-21T12:51:20.570Z,19.10
2019-03-21T12:53:51.062Z,19.10
2019-03-21T12:56:21.525Z,19.80
2019-03-21T12:58:52.021Z,20.00
2019-03-21T13:01:22.551Z,20.50
2019-03-21T13:03:53.041Z,21.10
2019-03-21T13:06:23.545Z,21.40
2019-03-21T13:08:54.000Z,21.70
2019-03-21T13:11:24.500Z,21.90
2019-03-21T13:13:54.990Z,22.20
2019-03-21T13:16:25.482Z,22.20
2019-03-21T13:18:55.986Z,22.20
2019-03-21T13:21:28.012Z,22.30
2019-03-21T13:23:58.500Z,22.30
2019-03-21T13:26:28.990Z,22.40
2019-03-21T13:28:59.447Z,22.10
2019-03-21T13:31:29.935Z,22.00
2019-03-21T13:34:00.429Z,21.80
2019-03-21T13:36:30.926Z,21.70
2019-03-21T13:39:01.410Z,21.50
2019-03-21T13:41:31.895Z,21.10
2019-03-21T13:44:02.356Z,21.00
2019-03-21T13:46:32.861Z,20.90
2019-03-21T13:49:05.818Z,20.70
2019-03-21T13:51:35.554Z,20.60
2019-03-21T13:54:08.648Z,20.60
2019-03-21T13:56:38.536Z,20.50
2019-03-21T13:59:09.947Z,20.40
2019-03-21T14:01:40.440Z,20.30
2019-03-21T14:04:10.908Z,20.30
2019-03-21T14:06:41.404Z,20.50
2019-03-21T14:09:11.863Z,20.60
2019-03-21T14:11:42.373Z,20.60
2019-03-21T14:14:12.829Z,20.70
2019-03-21T14:16:43.321Z,20.70
2019-03-21T14:19:13.812Z,20.60
2019-03-21T14:21:44.311Z,20.50
2019-03-21T14:24:14.791Z,20.60
2019-03-21T14:26:45.274Z,20.70
2019-03-21T14:29:15.768Z,21.00
2019-03-21T14:31:46.327Z,20.90
2019-03-21T14:34:16.796Z,21.40
2019-03-21T14:36:47.285Z,21.60
2019-03-21T14:39:17.794Z,21.90
2019-03-21T14:41:48.260Z,22.10
2019-03-21T14:44:18.752Z,22.10
2019-03-21T14:46:49.211Z,22.20
2019-03-21T14:49:19.695Z,21.80
2019-03-21T14:51:50.561Z,21.20
2019-03-21T14:54:21.047Z,21.00
2019-03-21T14:56:51.540Z,20.70
2019-03-21T14:59:23.727Z,20.40
2019-03-21T15:01:54.224Z,20.60
2019-03-21T15:04:24.689Z,20.60
2019-03-21T15:06:55.181Z,20.70
2019-03-21T15:09:26.875Z,20.60
2019-03-21T15:11:57.496Z,20.50
2019-03-21T15:14:31.932Z,20.40
2019-03-21T15:17:01.719Z,20.70
2019-03-21T15:19:32.212Z,20.90
2019-03-21T15:22:02.706Z,21.10
2019-03-21T15:24:33.171Z,20.70
2019-03-21T15:27:03.656Z,20.70
2019-03-21T15:29:35.461Z,20.90
2019-03-21T15:32:06.759Z,20.40
2019-03-21T15:34:37.249Z,20.20
2019-03-21T15:37:07.731Z,19.90
2019-03-21T15:39:38.221Z,20.50
2019-03-21T15:42:08.687Z,21.00
2019-03-21T15:44:39.176Z,21.20
2019-03-21T15:47:09.677Z,21.40
2019-03-21T15:49:41.710Z,21.20
2019-03-21T15:52:12.176Z,21.30
2019-03-21T15:54:42.687Z,21.40
2019-03-21T15:57:13.149Z,21.90
2019-03-21T15:59:43.631Z,22.10
2019-03-21T16:02:14.104Z,22.20
2019-03-21T16:04:44.594Z,21.90
2019-03-21T16:07:15.060Z,21.50
2019-03-21T16:09:45.558Z,21.10
2019-03-21T16:12:16.048Z,20.50
2019-03-21T16:14:49.154Z,19.50
2019-03-21T16:17:18.712Z,18.60
2019-03-21T16:19:49.172Z,17.90
2019-03-21T16:22:19.672Z,17.40
2019-03-21T16:24:50.180Z,16.90
2019-03-21T16:27:20.697Z,16.50
2019-03-21T16:29:51.157Z,16.10
2019-03-21T16:32:21.654Z,15.80
2019-03-21T16:34:52.161Z,15.40
2019-03-21T16:37:22.973Z,15.20
2019-03-21T16:39:53.458Z,15.10
2019-03-21T16:42:23.922Z,14.80
2019-03-21T16:44:56.357Z,14.60
2019-03-21T16:47:26.884Z,14.40
2019-03-21T16:49:57.347Z,14.30
2019-03-21T16:52:27.850Z,14.10
2019-03-21T16:54:58.303Z,14.00
2019-03-21T16:57:28.799Z,13.80
2019-03-21T16:59:59.286Z,13.80
2019-03-21T17:02:29.780Z,13.70
2019-03-21T17:05:00.510Z,13.60
2019-03-21T17:07:31.029Z,13.40
2019-03-21T17:10:02.584Z,13.30
2019-03-21T17:12:33.124Z,13.20
2019-03-21T17:15:05.326Z,13.10
2019-03-21T17:17:35.835Z,13.00
2019-03-21T17:20:09.039Z,12.90
2019-03-21T17:22:39.553Z,12.70
2019-03-21T17:25:11.544Z,12.50
2019-03-21T17:27:42.068Z,12.40
2019-03-21T17:30:15.456Z,12.30
2019-03-21T17:32:45.955Z,12.20
2019-03-21T17:35:16.599Z,12.00
2019-03-21T17:37:47.086Z,11.90
2019-03-21T17:40:18.098Z,11.80
2019-03-21T17:42:50.204Z,11.80
2019-03-21T17:45:20.860Z,11.80
2019-03-21T17:47:51.433Z,11.70
2019-03-21T17:50:22.307Z,11.60
2019-03-21T17:52:52.812Z,11.50
2019-03-21T17:55:23.316Z,11.40
2019-03-21T17:57:53.825Z,11.30
2019-03-21T18:00:35.474Z,11.20
2019-03-21T18:03:07.208Z,11.20
2019-03-21T18:05:37.709Z,11.00
2019-03-21T18:08:08.889Z,11.00
2019-03-21T18:10:39.446Z,10.90
2019-03-21T18:13:09.914Z,10.80
2019-03-21T18:15:40.423Z,10.70
2019-03-21T18:18:10.906Z,10.70
2019-03-21T18:20:41.512Z,10.70
2019-03-21T18:23:11.989Z,10.60
2019-03-21T18:25:42.573Z,10.60
2019-03-21T18:28:13.043Z,10.60
2019-03-21T18:30:43.560Z,10.50
2019-03-21T18:33:14.057Z,10.50
2019-03-21T18:35:44.637Z,10.40
2019-03-21T18:38:15.113Z,10.40
2019-03-21T18:40:45.622Z,10.30
2019-03-21T18:43:16.166Z,10.20
2019-03-21T18:45:46.820Z,10.20
2019-03-21T18:48:17.316Z,10.10
2019-03-21T18:50:47.802Z,10.10
2019-03-21T18:53:18.313Z,10.10
2019-03-21T18:55:48.888Z,9.90
2019-03-21T18:58:19.392Z,9.90
2019-03-21T19:00:49.927Z,9.80
2019-03-21T19:03:20.417Z,9.80
2019-03-21T19:05:50.900Z,9.80
2019-03-21T19:08:21.401Z,9.70
2019-03-21T19:10:53.510Z,9.70
2019-03-21T19:13:24.006Z,9.70
2019-03-21T19:15:54.475Z,9.60
2019-03-21T19:18:24.991Z,9.50
2019-03-21T19:20:56.211Z,9.50
2019-03-21T19:23:29.964Z,9.30
2019-03-21T19:26:00.449Z,9.30
2019-03-21T19:28:32.686Z,9.20
2019-03-21T19:31:03.132Z,9.20
2019-03-21T19:33:33.619Z,9.20
2019-03-21T19:36:04.229Z,9.20
2019-03-21T19:38:34.730Z,9.10
2019-03-21T19:41:06.541Z,9.10
2019-03-21T19:43:39.100Z,9.00
2019-03-21T19:46:09.560Z,8.90
2019-03-21T19:48:49.786Z,8.90
2019-03-21T19:51:12.313Z,8.80
2019-03-21T19:53:42.873Z,8.70
2019-03-21T19:56:13.362Z,8.70
2019-03-21T19:58:43.823Z,8.70
2019-03-21T20:01:14.330Z,8.60
2019-03-21T20:03:44.842Z,8.60
2019-03-21T20:06:15.320Z,8.50
2019-03-21T20:08:45.834Z,8.50
2019-03-21T20:11:16.378Z,8.40
2019-03-21T20:13:46.870Z,8.40
2019-03-21T20:16:17.340Z,8.40
2019-03-21T20:18:49.728Z,8.30
2019-03-21T20:21:20.220Z,8.20
2019-03-21T20:23:50.747Z,8.20
2019-03-21T20:26:22.510Z,8.20
2019-03-21T20:28:52.969Z,8.20
2019-03-21T20:31:23.477Z,8.20
2019-03-21T20:33:53.941Z,8.20
2019-03-21T20:36:24.435Z,8.20
2019-03-21T20:38:54.898Z,8.10
2019-03-21T20:41:25.407Z,8.10
2019-03-21T20:43:55.901Z,8.20
2019-03-21T20:46:26.380Z,8.10
2019-03-21T20:48:55.296Z,8.00
2019-03-21T20:51:25.756Z,8.00
2019-03-21T20:53:56.260Z,8.00
2019-03-21T20:56:26.721Z,8.10
2019-03-21T20:58:57.289Z,8.10
2019-03-21T21:01:27.777Z,8.00
2019-03-21T21:03:58.251Z,8.00
2019-03-21T21:06:28.741Z,7.90
2019-03-21T21:08:59.205Z,7.90
2019-03-21T21:11:29.697Z,7.80
2019-03-21T21:14:00.171Z,7.80
2019-03-21T21:16:30.670Z,7.70
2019-03-21T21:19:01.212Z,7.70
2019-03-21T21:21:31.715Z,7.70
2019-03-21T21:24:02.181Z,7.60
2019-03-21T21:26:32.677Z,7.70
2019-03-21T21:29:03.131Z,7.60
2019-03-21T21:31:33.620Z,7.50
2019-03-21T21:34:04.645Z,7.30
2019-03-21T21:36:37.943Z,7.30
2019-03-21T21:39:08.575Z,7.20
2019-03-21T21:41:39.061Z,7.10
2019-03-21T21:44:09.593Z,7.00
2019-03-21T21:46:40.086Z,7.00
2019-03-21T21:49:12.988Z,7.00
2019-03-21T21:51:42.738Z,7.10
2019-03-21T21:54:13.231Z,7.00
2019-03-21T21:56:45.422Z,7.10
2019-03-21T21:59:15.886Z,7.00
2019-03-21T22:01:47.531Z,7.00
2019-03-21T22:04:18.128Z,7.00
2019-03-21T22:06:48.633Z,6.90
2019-03-21T22:09:19.124Z,6.80
2019-03-21T22:11:49.601Z,6.70
2019-03-21T22:14:20.093Z,6.60
2019-03-21T22:16:50.588Z,6.60
2019-03-21T22:19:22.265Z,6.60
2019-03-21T22:21:52.754Z,6.70
2019-03-21T22:24:23.215Z,6.60
2019-03-21T22:26:53.709Z,6.60
2019-03-21T22:29:24.175Z,6.60
2019-03-21T22:31:54.658Z,6.60
2019-03-21T22:34:25.149Z,6.50
2019-03-21T22:36:56.763Z,6.40
2019-03-21T22:39:27.249Z,6.30
2019-03-21T22:41:57.742Z,6.30
2019-03-21T22:44:28.201Z,6.20
2019-03-21T22:46:58.699Z,6.10
2019-03-21T22:49:29.281Z,6.10
2019-03-21T22:51:59.747Z,6.00
2019-03-21T22:54:30.604Z,5.90
2019-03-21T22:57:02.140Z,5.90
2019-03-21T22:59:32.623Z,5.90
2019-03-21T23:02:03.596Z,5.90
2019-03-21T23:04:34.167Z,5.80
2019-03-21T23:07:04.701Z,5.70
2019-03-21T23:09:35.209Z,5.70
2019-03-21T23:12:06.009Z,5.70
2019-03-21T23:14:36.506Z,5.70
2019-03-21T23:17:07.039Z,5.70
2019-03-21T23:19:37.549Z,5.70
2019-03-21T23:22:09.187Z,5.70
2019-03-21T23:24:42.007Z,5.60
2019-03-21T23:27:12.457Z,5.50
2019-03-21T23:29:42.956Z,5.60
2019-03-21T23:32:13.423Z,5.60
2019-03-21T23:34:45.246Z,5.60
2019-03-21T23:37:15.710Z,5.70
2019-03-21T23:39:46.215Z,5.60
2019-03-21T23:42:16.755Z,5.60
2019-03-21T23:44:50.455Z,5.50
2019-03-21T23:47:20.941Z,5.40
2019-03-21T23:49:51.501Z,5.20
2019-03-21T23:52:21.995Z,5.20
2019-03-21T23:54:52.483Z,5.30
2019-03-21T23:57:23.094Z,5.30
2019-03-21T23:59:53.592Z,5.40
